Terminal Aerodrome Forecast
Issued by NWS Milwaukee/Sullivan, WI

Home | Current Version | Previous Version | Text Only | Print | Product List | Glossary On
Versions: 1 2 3 4 5 6 7 8 9 10 11 12 13 14 15 16 17 18 19 20 21 22 23 24 25 26 27 28 29 30 31 32 33 34 35 36 37 38 39 40 41 42 43
000
FTUS43 KMKX 271725
TAFMSN
TAF
KMSN 271725Z 2718/2818 23005KT P6SM BKN035
     FM272200 26005KT P6SM SCT035
     FM280100 36004KT P6SM VCTS BKN050CB
     FM280300 07004KT P6SM SHRA VCTS BKN090CB
     FM280600 09004KT P6SM BKN110 PROB30 2806/2810 4SM TSRA BR
      OVC040CB
     FM281000 08004KT 3SM BR BKN070 PROB30 2810/2812 2SM TSRA BR
      OVC025CB
     FM281500 06006KT P6SM OVC020
     FM281700 05007KT P6SM OVC035=

USA.gov is the U.S. government's official web portal to all federal, state and local government web resources and services.